createdAt,value
2022-08-29T00:01:09.727Z,76.98
2022-08-29T00:03:36.707Z,76.94
2022-08-29T00:06:03.623Z,76.66
2022-08-29T00:08:30.091Z,77.08
2022-08-29T00:10:56.641Z,77.26
2022-08-29T00:13:23.328Z,77.31
2022-08-29T00:15:50.087Z,77.79
2022-08-29T00:18:19.293Z,77.33
2022-08-29T00:20:46.601Z,77.00
2022-08-29T00:23:13.581Z,77.70
2022-08-29T00:25:40.242Z,77.96
2022-08-29T00:28:06.827Z,78.03
2022-08-29T00:30:35.097Z,78.12
2022-08-29T00:33:02.137Z,77.34
2022-08-29T00:35:33.465Z,77.47
2022-08-29T00:38:01.047Z,76.27
2022-08-29T00:40:51.728Z,75.76
2022-08-29T00:43:31.627Z,75.76
2022-08-29T00:46:38.819Z,76.24
2022-08-29T00:49:11.746Z,77.09
2022-08-29T00:51:41.213Z,78.04
2022-08-29T00:54:10.295Z,78.23
2022-08-29T00:56:39.185Z,77.64
2022-08-29T00:59:13.503Z,77.61
2022-08-29T01:01:40.438Z,77.46
2022-08-29T01:04:09.851Z,77.50
2022-08-29T01:06:43.601Z,77.10
2022-08-29T01:09:11.033Z,76.44
2022-08-29T01:11:56.588Z,78.34
2022-08-29T01:14:25.560Z,79.67
2022-08-29T01:16:55.373Z,79.22
2022-08-29T01:19:24.505Z,79.54
2022-08-29T01:22:02.143Z,79.69
2022-08-29T01:24:40.035Z,80.85
2022-08-29T01:27:07.734Z,81.04
2022-08-29T01:29:34.840Z,81.81
2022-08-29T01:32:02.149Z,81.64
2022-08-29T01:34:29.709Z,82.11
2022-08-29T01:36:59.511Z,82.22
2022-08-29T01:39:30.542Z,82.10
2022-08-29T01:42:01.927Z,82.71
2022-08-29T01:44:28.451Z,82.85
2022-08-29T01:47:02.692Z,82.76
2022-08-29T01:49:32.165Z,82.46
2022-08-29T01:51:58.645Z,82.55
2022-08-29T01:54:25.282Z,81.82
2022-08-29T01:56:53.348Z,82.49
2022-08-29T01:59:27.079Z,82.32
2022-08-29T02:01:58.522Z,82.22
2022-08-29T02:04:25.579Z,82.48
2022-08-29T02:06:52.595Z,82.25
2022-08-29T02:09:19.479Z,82.42
2022-08-29T02:11:48.225Z,82.63
2022-08-29T02:14:19.231Z,81.81
2022-08-29T02:16:47.468Z,81.91
2022-08-29T02:19:14.624Z,81.45
2022-08-29T02:21:41.745Z,81.24
2022-08-29T02:24:24.541Z,81.29
2022-08-29T02:26:52.545Z,82.27
2022-08-29T02:29:19.168Z,82.79
2022-08-29T02:31:45.767Z,83.62
2022-08-29T02:34:12.992Z,83.34
2022-08-29T02:36:41.356Z,82.87
2022-08-29T02:39:08.183Z,82.88
2022-08-29T02:41:35.864Z,82.45
2022-08-29T02:44:02.706Z,83.10
2022-08-29T02:46:29.275Z,83.24
2022-08-29T02:49:00.970Z,83.15
2022-08-29T02:51:30.713Z,83.92
2022-08-29T02:53:58.095Z,83.23
2022-08-29T02:56:24.630Z,83.08
2022-08-29T02:58:51.193Z,83.84
2022-08-29T03:01:22.539Z,83.99
2022-08-29T03:03:52.888Z,83.85
2022-08-29T03:06:20.874Z,83.96
2022-08-29T03:08:47.403Z,83.67
2022-08-29T03:11:14.077Z,83.33
2022-08-29T03:13:43.411Z,83.89
2022-08-29T03:16:11.094Z,84.10
2022-08-29T03:18:37.964Z,84.21
2022-08-29T03:21:04.597Z,84.02
2022-08-29T03:23:31.146Z,85.11
2022-08-29T03:25:57.772Z,85.04
2022-08-29T03:28:24.294Z,84.59
2022-08-29T03:30:50.872Z,84.60
2022-08-29T03:33:18.138Z,84.95
2022-08-29T03:35:44.627Z,84.90
2022-08-29T03:38:11.215Z,83.98
2022-08-29T03:40:41.376Z,84.43
2022-08-29T03:43:09.430Z,84.71
2022-08-29T03:45:36.006Z,84.42
2022-08-29T03:48:02.796Z,84.66
2022-08-29T03:50:29.520Z,84.13
2022-08-29T03:52:56.022Z,84.68
2022-08-29T03:55:22.508Z,84.60
2022-08-29T03:57:49.210Z,84.69
2022-08-29T04:00:18.365Z,85.18
2022-08-29T04:02:46.794Z,84.50
2022-08-29T04:05:14.988Z,84.82
2022-08-29T04:08:00.200Z,85.94
2022-08-29T04:10:31.164Z,90.52
2022-08-29T04:12:58.547Z,89.50
2022-08-29T04:15:27.294Z,87.90
2022-08-29T04:17:59.898Z,86.77
2022-08-29T04:20:29.199Z,87.57
2022-08-29T04:22:57.447Z,87.91
2022-08-29T04:25:25.674Z,88.96
2022-08-29T04:27:53.885Z,88.81
2022-08-29T04:30:23.006Z,87.40
2022-08-29T04:32:49.989Z,86.01
2022-08-29T04:35:16.664Z,85.72
2022-08-29T04:37:43.992Z,87.50
2022-08-29T04:40:13.710Z,87.58
2022-08-29T04:42:40.571Z,87.60
2022-08-29T04:45:12.098Z,88.60
2022-08-29T04:47:39.593Z,88.77
2022-08-29T04:50:08.031Z,88.13
2022-08-29T04:52:34.584Z,88.06
2022-08-29T04:55:01.250Z,86.61
2022-08-29T04:57:27.839Z,89.79
2022-08-29T05:00:01.380Z,90.44
2022-08-29T05:02:28.595Z,89.52
2022-08-29T05:04:56.706Z,89.85
2022-08-29T05:07:25.751Z,89.24
2022-08-29T05:10:00.955Z,89.42
2022-08-29T05:12:31.339Z,91.18
2022-08-29T05:14:58.009Z,91.41
2022-08-29T05:17:25.812Z,89.87
2022-08-29T05:19:53.227Z,90.23
2022-08-29T05:22:20.827Z,90.34
2022-08-29T05:24:48.824Z,89.95
2022-08-29T05:27:18.798Z,90.10
2022-08-29T05:29:47.996Z,88.90
2022-08-29T05:32:15.542Z,88.43
2022-08-29T05:34:43.561Z,88.20
2022-08-29T05:37:14.662Z,88.27
2022-08-29T05:39:42.382Z,87.59
2022-08-29T05:42:10.798Z,88.46
2022-08-29T05:44:38.803Z,89.37
2022-08-29T05:47:10.153Z,89.44
2022-08-29T05:49:38.822Z,89.16
2022-08-29T05:52:06.074Z,89.03
2022-08-29T05:54:38.692Z,88.08
2022-08-29T05:57:06.841Z,90.25
2022-08-29T05:59:33.393Z,88.71
2022-08-29T06:01:59.886Z,87.56
2022-08-29T06:04:26.502Z,87.78
2022-08-29T06:06:53.141Z,87.03
2022-08-29T06:09:19.720Z,86.76
2022-08-29T06:11:48.854Z,86.36
2022-08-29T06:14:16.196Z,87.69
2022-08-29T06:16:43.264Z,87.81
2022-08-29T06:19:09.912Z,87.34
2022-08-29T06:21:36.430Z,89.57
2022-08-29T06:24:03.462Z,87.08
2022-08-29T06:26:31.461Z,86.56
2022-08-29T06:28:58.075Z,86.92
2022-08-29T06:31:29.575Z,86.45
2022-08-29T06:34:01.524Z,85.26
2022-08-29T06:36:29.560Z,86.11
2022-08-29T06:38:57.785Z,85.78
2022-08-29T06:41:25.447Z,85.00
2022-08-29T06:43:52.486Z,86.75
2022-08-29T06:46:25.826Z,85.68
2022-08-29T06:48:53.796Z,85.83
2022-08-29T06:51:20.969Z,84.46
2022-08-29T06:53:47.610Z,83.48
2022-08-29T06:56:14.480Z,83.31
2022-08-29T06:58:41.281Z,83.58
2022-08-29T07:01:10.089Z,83.79
2022-08-29T07:03:36.959Z,83.18
2022-08-29T07:06:03.784Z,82.78
2022-08-29T07:08:30.671Z,81.03
2022-08-29T07:10:57.407Z,81.47
2022-08-29T07:13:23.929Z,81.99
2022-08-29T07:15:50.496Z,82.39
2022-08-29T07:18:17.158Z,81.92
2022-08-29T07:20:44.094Z,81.98
2022-08-29T07:23:11.028Z,82.01
2022-08-29T07:25:38.646Z,80.82
2022-08-29T07:28:05.672Z,81.06
2022-08-29T07:30:32.666Z,80.71
2022-08-29T07:33:00.019Z,79.28
2022-08-29T07:35:30.377Z,79.59
2022-08-29T07:37:59.416Z,79.63
2022-08-29T07:40:25.986Z,78.45
2022-08-29T07:42:52.925Z,78.75
2022-08-29T07:45:19.851Z,78.67
2022-08-29T07:47:46.360Z,77.79
2022-08-29T07:50:14.346Z,78.32
2022-08-29T07:52:41.125Z,77.88
2022-08-29T07:55:08.080Z,78.57
2022-08-29T07:57:39.583Z,78.72
2022-08-29T08:00:10.705Z,78.37
2022-08-29T08:02:37.274Z,77.16
2022-08-29T08:05:03.909Z,76.84
2022-08-29T08:07:35.097Z,75.87
2022-08-29T08:10:03.628Z,74.70
2022-08-29T08:12:30.372Z,74.19
2022-08-29T08:14:57.240Z,73.83
2022-08-29T08:17:23.910Z,72.45
2022-08-29T08:19:50.443Z,73.29
2022-08-29T08:22:16.973Z,70.84
2022-08-29T08:24:43.605Z,71.52
2022-08-29T08:27:10.132Z,73.05
2022-08-29T08:29:36.606Z,72.77
2022-08-29T08:32:03.644Z,70.16
2022-08-29T08:34:30.310Z,68.32
2022-08-29T08:36:57.238Z,67.78
2022-08-29T08:39:23.768Z,71.00
2022-08-29T08:42:04.255Z,70.67
2022-08-29T08:44:57.247Z,71.78
2022-08-29T08:47:39.406Z,70.07
2022-08-29T08:50:30.764Z,71.89
2022-08-29T08:53:02.320Z,71.93
2022-08-29T08:55:46.259Z,72.66
2022-08-29T08:58:34.449Z,71.10
2022-08-29T09:01:03.602Z,71.20
2022-08-29T09:03:36.289Z,71.89
2022-08-29T09:06:22.371Z,71.38
2022-08-29T09:09:33.590Z,68.27
2022-08-29T09:12:15.304Z,70.95
2022-08-29T09:15:13.705Z,71.16
2022-08-29T09:17:44.281Z,70.30
2022-08-29T09:20:18.314Z,70.71
2022-08-29T09:22:59.133Z,70.52
2022-08-29T09:25:29.076Z,70.54
2022-08-29T09:27:58.808Z,68.26
2022-08-29T09:30:29.934Z,68.90
2022-08-29T09:33:01.723Z,68.09
2022-08-29T09:35:49.689Z,66.03
2022-08-29T09:38:25.701Z,66.28
2022-08-29T09:40:52.206Z,68.37
2022-08-29T09:43:28.387Z,71.20
2022-08-29T09:46:03.874Z,70.14
2022-08-29T09:48:35.304Z,67.10
2022-08-29T09:51:15.396Z,68.46
2022-08-29T09:53:43.131Z,66.23
2022-08-29T09:56:17.404Z,68.63
2022-08-29T09:58:44.041Z,65.76
2022-08-29T10:01:19.399Z,66.63
2022-08-29T10:04:03.305Z,63.22
2022-08-29T10:06:44.290Z,68.24
2022-08-29T10:09:26.388Z,63.53
2022-08-29T10:12:00.458Z,66.63
2022-08-29T10:14:34.398Z,66.62
2022-08-29T10:17:24.369Z,67.05
2022-08-29T10:19:51.768Z,67.24
2022-08-29T10:22:32.359Z,67.75
2022-08-29T10:25:22.608Z,67.20
2022-08-29T10:28:00.430Z,65.35
2022-08-29T10:30:35.815Z,66.26
2022-08-29T10:33:09.329Z,68.06
2022-08-29T10:36:00.967Z,67.06
2022-08-29T10:38:39.164Z,65.34
2022-08-29T10:41:50.607Z,63.29
2022-08-29T10:44:41.731Z,60.98
2022-08-29T10:47:14.214Z,64.66
2022-08-29T10:49:59.128Z,61.28
2022-08-29T10:52:41.836Z,64.85
2022-08-29T10:55:19.797Z,62.93
2022-08-29T10:58:17.681Z,63.59
2022-08-29T11:00:51.724Z,60.62
2022-08-29T11:03:46.255Z,62.76
2022-08-29T11:06:22.658Z,60.64
2022-08-29T11:08:55.640Z,63.05
2022-08-29T11:11:24.761Z,62.26
2022-08-29T11:13:58.735Z,60.08
2022-08-29T11:16:46.263Z,60.94
2022-08-29T11:19:22.744Z,62.92
2022-08-29T11:22:12.562Z,58.96
2022-08-29T11:24:42.046Z,59.73
2022-08-29T11:27:30.472Z,60.52
2022-08-29T11:30:03.983Z,58.98
2022-08-29T11:33:03.495Z,58.88
2022-08-29T11:35:42.199Z,60.20
2022-08-29T11:38:23.847Z,60.83
2022-08-29T11:41:26.736Z,63.21
2022-08-29T11:44:14.135Z,61.32
2022-08-29T11:46:44.153Z,59.82
2022-08-29T11:49:30.429Z,60.23
2022-08-29T11:52:22.596Z,58.73
2022-08-29T11:54:54.294Z,59.57
2022-08-29T11:57:20.689Z,57.24
2022-08-29T11:59:50.701Z,56.17
2022-08-29T12:02:30.165Z,56.11
2022-08-29T12:05:04.517Z,58.90
2022-08-29T12:08:35.738Z,59.33
2022-08-29T12:10:59.775Z,61.71
2022-08-29T12:13:48.257Z,58.81
2022-08-29T12:16:18.551Z,60.18
2022-08-29T12:18:49.295Z,60.39
2022-08-29T12:21:44.161Z,62.78
2022-08-29T12:24:31.353Z,58.13
2022-08-29T12:26:58.195Z,60.52
2022-08-29T12:29:33.305Z,56.62
2022-08-29T12:32:40.060Z,62.17
2022-08-29T12:35:27.554Z,56.73
2022-08-29T12:38:24.594Z,55.03
2022-08-29T12:41:23.878Z,55.41
2022-08-29T12:43:54.216Z,54.76
2022-08-29T12:46:29.903Z,54.61
2022-08-29T12:49:08.231Z,56.03
2022-08-29T12:51:38.106Z,52.87
2022-08-29T12:54:05.753Z,55.35
2022-08-29T12:56:33.219Z,53.80
2022-08-29T12:59:03.811Z,52.79
2022-08-29T13:01:37.953Z,53.94
2022-08-29T13:04:10.705Z,50.12
2022-08-29T13:06:50.328Z,51.28
2022-08-29T13:09:41.644Z,52.80
2022-08-29T13:12:08.284Z,52.44
2022-08-29T13:14:51.872Z,52.22
2022-08-29T13:17:21.003Z,53.07
2022-08-29T13:20:25.608Z,52.49
2022-08-29T13:23:05.556Z,52.60
2022-08-29T13:25:33.159Z,52.50
2022-08-29T13:28:01.949Z,53.43
2022-08-29T13:30:28.862Z,54.30
2022-08-29T13:32:55.423Z,53.73
2022-08-29T13:35:31.555Z,55.63
2022-08-29T13:38:19.706Z,52.85
2022-08-29T13:40:52.171Z,52.60
2022-08-29T13:43:27.753Z,51.69
2022-08-29T13:46:03.389Z,52.60
2022-08-29T13:48:29.975Z,51.16
2022-08-29T13:50:56.503Z,53.08
2022-08-29T13:53:22.975Z,49.96
2022-08-29T13:55:49.506Z,50.85
2022-08-29T13:58:18.897Z,52.43
2022-08-29T14:00:45.452Z,51.15
2022-08-29T14:03:16.711Z,52.04
2022-08-29T14:05:43.514Z,49.75
2022-08-29T14:08:12.365Z,51.67
2022-08-29T14:10:39.365Z,50.76
2022-08-29T14:13:06.519Z,50.16
2022-08-29T14:15:33.511Z,50.74
2022-08-29T14:18:00.217Z,49.44
2022-08-29T14:20:26.781Z,52.06
2022-08-29T14:22:53.284Z,51.76
2022-08-29T14:25:20.535Z,48.62
2022-08-29T14:27:47.832Z,51.51
2022-08-29T14:30:20.120Z,48.37
2022-08-29T14:32:46.849Z,48.41
2022-08-29T14:35:17.079Z,51.68
2022-08-29T14:37:53.797Z,48.69
2022-08-29T14:40:21.880Z,48.38
2022-08-29T14:42:48.562Z,48.94
2022-08-29T14:45:15.132Z,49.97
2022-08-29T14:47:43.310Z,49.02
2022-08-29T14:50:12.685Z,48.30
2022-08-29T14:52:39.180Z,47.34
2022-08-29T14:55:06.549Z,48.33
2022-08-29T14:57:33.225Z,46.54
2022-08-29T14:59:59.701Z,47.70
2022-08-29T15:02:26.290Z,46.19
2022-08-29T15:04:54.762Z,45.76
2022-08-29T15:07:21.291Z,47.25
2022-08-29T15:09:47.963Z,45.23
2022-08-29T15:12:16.896Z,45.89
2022-08-29T15:14:45.045Z,45.59
2022-08-29T15:17:12.323Z,46.13
2022-08-29T15:20:34.327Z,47.57
2022-08-29T15:22:26.248Z,49.46
2022-08-29T15:24:53.004Z,48.02
2022-08-29T15:27:26.823Z,47.26
2022-08-29T15:29:54.359Z,46.90
2022-08-29T15:32:20.928Z,47.91
2022-08-29T15:34:47.510Z,49.32
2022-08-29T15:37:14.115Z,49.84
2022-08-29T15:39:41.176Z,49.55
2022-08-29T15:42:17.670Z,48.34
2022-08-29T15:44:51.317Z,47.90
2022-08-29T15:47:22.647Z,47.98
2022-08-29T15:50:02.863Z,47.40
2022-08-29T15:52:42.815Z,47.37
2022-08-29T15:55:39.056Z,47.19
2022-08-29T15:58:12.989Z,46.17
2022-08-29T16:00:52.472Z,47.71
2022-08-29T16:03:29.865Z,47.88
2022-08-29T16:06:16.021Z,49.40
2022-08-29T16:08:46.706Z,51.08
2022-08-29T16:11:38.581Z,50.72
2022-08-29T16:14:58.649Z,50.82
2022-08-29T16:20:20.191Z,50.97
2022-08-29T16:23:08.969Z,51.42
2022-08-29T16:25:48.944Z,51.94
2022-08-29T16:28:29.514Z,52.06
2022-08-29T16:31:02.098Z,52.38
2022-08-29T16:33:42.778Z,52.29
2022-08-29T16:36:29.899Z,52.25
2022-08-29T16:39:02.533Z,52.71
2022-08-29T16:41:41.094Z,52.73
2022-08-29T16:44:14.585Z,52.84
2022-08-29T16:46:47.534Z,53.48
2022-08-29T16:49:24.358Z,53.23
2022-08-29T16:51:57.991Z,53.28
2022-08-29T16:54:34.193Z,53.10
2022-08-29T16:57:10.031Z,53.37
2022-08-29T16:59:51.925Z,53.51
2022-08-29T17:02:26.178Z,54.44
2022-08-29T17:05:06.146Z,53.79
2022-08-29T17:07:47.169Z,54.51
2022-08-29T17:10:26.910Z,53.88
2022-08-29T17:13:02.105Z,54.28
2022-08-29T17:15:36.731Z,54.10
2022-08-29T17:18:13.112Z,54.16
2022-08-29T17:21:04.969Z,54.14
2022-08-29T17:23:39.507Z,54.85
2022-08-29T17:26:09.572Z,54.18
2022-08-29T17:28:54.146Z,54.08
2022-08-29T17:31:48.874Z,54.52
2022-08-29T17:34:24.438Z,54.33
2022-08-29T17:40:11.215Z,54.94
2022-08-29T17:42:50.794Z,55.53
2022-08-29T17:45:33.522Z,55.67
2022-08-29T17:48:10.903Z,55.39
2022-08-29T17:50:48.387Z,56.13
2022-08-29T17:53:18.717Z,56.54
2022-08-29T17:55:54.975Z,56.70
2022-08-29T17:58:37.247Z,56.46
2022-08-29T18:01:10.438Z,56.56
2022-08-29T18:03:48.475Z,57.01
2022-08-29T18:06:27.110Z,58.61
2022-08-29T18:11:56.459Z,59.83
2022-08-29T18:14:27.037Z,59.44
2022-08-29T18:17:06.171Z,60.01
2022-08-29T18:19:48.664Z,60.94
2022-08-29T18:22:24.132Z,61.91
2022-08-29T18:25:05.624Z,62.09
2022-08-29T18:28:00.408Z,61.68
2022-08-29T18:30:35.229Z,61.96
2022-08-29T18:33:28.496Z,62.36
2022-08-29T18:36:13.851Z,62.02
2022-08-29T18:39:15.959Z,62.67
2022-08-29T18:41:55.700Z,62.90
2022-08-29T18:44:33.395Z,63.58
2022-08-29T18:47:33.707Z,64.38
2022-08-29T18:50:30.602Z,64.69
2022-08-29T18:53:09.397Z,64.94
2022-08-29T18:55:54.388Z,64.71
2022-08-29T19:01:31.236Z,64.43
2022-08-29T19:04:14.597Z,65.24
2022-08-29T19:06:55.158Z,65.52
2022-08-29T19:09:25.674Z,65.75
2022-08-29T19:12:02.543Z,66.45
2022-08-29T19:14:41.632Z,66.95
2022-08-29T19:17:17.469Z,67.55
2022-08-29T19:20:12.358Z,68.04
2022-08-29T19:22:39.329Z,67.67
2022-08-29T19:25:08.848Z,68.66
2022-08-29T19:27:43.529Z,68.49
2022-08-29T19:30:13.376Z,69.51
2022-08-29T19:32:40.094Z,70.07
2022-08-29T19:35:07.186Z,70.01
2022-08-29T19:37:33.773Z,69.82
2022-08-29T19:40:01.273Z,70.29
2022-08-29T19:42:28.127Z,70.28
2022-08-29T19:44:54.944Z,70.83
2022-08-29T19:47:23.979Z,70.56
2022-08-29T19:49:51.027Z,70.79
2022-08-29T19:52:17.637Z,71.85
2022-08-29T19:54:44.217Z,72.85
2022-08-29T19:57:13.614Z,73.97
2022-08-29T19:59:42.240Z,75.31
2022-08-29T20:02:09.333Z,74.66
2022-08-29T20:04:36.424Z,74.27
2022-08-29T20:07:03.471Z,74.96
2022-08-29T20:09:30.254Z,76.43
2022-08-29T20:11:57.279Z,77.06
2022-08-29T20:14:24.223Z,77.38
2022-08-29T20:16:51.630Z,76.78
2022-08-29T20:19:19.089Z,78.13
2022-08-29T20:21:46.051Z,79.11
2022-08-29T20:24:15.691Z,78.64
2022-08-29T20:26:44.405Z,77.49
2022-08-29T20:29:12.052Z,77.40
2022-08-29T20:31:39.793Z,76.77
2022-08-29T20:34:06.682Z,76.48
2022-08-29T20:36:51.659Z,76.22
2022-08-29T20:39:20.153Z,75.88
2022-08-29T20:41:51.596Z,75.25
2022-08-29T20:44:20.235Z,74.60
2022-08-29T20:46:47.893Z,75.05
2022-08-29T20:49:18.261Z,76.28
2022-08-29T20:51:45.084Z,76.64
2022-08-29T20:54:18.729Z,77.09
2022-08-29T20:56:45.379Z,77.79
2022-08-29T20:59:12.872Z,77.31
2022-08-29T21:01:40.354Z,76.88
2022-08-29T21:04:27.766Z,78.01
2022-08-29T21:07:02.753Z,77.10
2022-08-29T21:09:29.297Z,77.93
2022-08-29T21:11:56.492Z,77.77
2022-08-29T21:14:23.961Z,76.77
2022-08-29T21:16:52.202Z,79.18
2022-08-29T21:19:19.089Z,78.80
2022-08-29T21:21:46.210Z,78.91
2022-08-29T21:24:12.853Z,79.18
2022-08-29T21:26:39.962Z,78.60
2022-08-29T21:29:07.782Z,77.51
2022-08-29T21:31:34.855Z,78.20
2022-08-29T21:34:06.437Z,78.03
2022-08-29T21:36:35.968Z,78.35
2022-08-29T21:39:04.056Z,78.32
2022-08-29T21:41:31.769Z,78.93
2022-08-29T21:43:58.365Z,78.20
2022-08-29T21:46:31.590Z,77.77
2022-08-29T21:49:04.659Z,77.13
2022-08-29T21:51:32.382Z,77.43
2022-08-29T21:53:59.963Z,78.25
2022-08-29T21:56:28.793Z,78.47
2022-08-29T21:58:56.803Z,77.62
2022-08-29T22:01:29.840Z,77.72
2022-08-29T22:03:58.432Z,78.76
2022-08-29T22:06:27.690Z,79.85
2022-08-29T22:08:55.119Z,79.04
2022-08-29T22:11:37.045Z,77.54
2022-08-29T22:14:05.679Z,79.64
2022-08-29T22:16:32.406Z,80.05
2022-08-29T22:19:16.567Z,78.86
2022-08-29T22:21:46.228Z,78.05
2022-08-29T22:24:14.232Z,77.65
2022-08-29T22:26:42.258Z,78.27
2022-08-29T22:29:12.022Z,78.88
2022-08-29T22:31:38.826Z,78.04
2022-08-29T22:34:05.739Z,78.43
2022-08-29T22:36:33.136Z,78.56
2022-08-29T22:38:59.998Z,79.23
2022-08-29T22:41:26.950Z,80.29
2022-08-29T22:44:31.691Z,79.21
2022-08-29T22:46:43.917Z,78.12
2022-08-29T22:49:10.522Z,78.64
2022-08-29T22:51:37.152Z,77.82
2022-08-29T22:54:22.202Z,77.24
2022-08-29T22:56:48.686Z,79.01
2022-08-29T22:59:15.228Z,78.52
2022-08-29T23:01:44.117Z,77.86
2022-08-29T23:04:11.606Z,78.68
2022-08-29T23:06:38.502Z,79.37
2022-08-29T23:09:05.892Z,79.48
2022-08-29T23:11:32.792Z,80.68
2022-08-29T23:13:59.549Z,79.57
2022-08-29T23:16:26.110Z,79.09
2022-08-29T23:18:52.662Z,79.61
2022-08-29T23:21:19.422Z,80.07
2022-08-29T23:23:46.135Z,80.38
2022-08-29T23:26:12.792Z,80.32
2022-08-29T23:28:39.352Z,81.21
2022-08-29T23:31:06.143Z,80.87
2022-08-29T23:33:32.711Z,80.49
2022-08-29T23:35:59.154Z,79.58
2022-08-29T23:38:26.190Z,79.41
2022-08-29T23:40:56.316Z,80.46
2022-08-29T23:43:24.657Z,79.97
2022-08-29T23:45:52.011Z,79.34
2022-08-29T23:48:19.008Z,79.93
2022-08-29T23:50:53.387Z,80.41
2022-08-29T23:53:22.206Z,79.48
2022-08-29T23:55:49.749Z,79.62
2022-08-29T23:58:17.431Z,80.42
